createdAt,value
2023-04-17T00:01:40.150Z,18.00
2023-04-17T00:04:11.267Z,18.58
2023-04-17T00:06:38.636Z,17.58
2023-04-17T00:09:06.103Z,16.35
2023-04-17T00:11:32.839Z,21.42
2023-04-17T00:13:59.583Z,16.00
2023-04-17T00:16:27.306Z,16.35
2023-04-17T00:18:55.032Z,15.68
2023-04-17T00:21:21.989Z,16.42
2023-04-17T00:23:50.383Z,17.80
2023-04-17T00:26:17.128Z,15.55
2023-04-17T00:28:44.033Z,16.48
2023-04-17T00:31:10.937Z,14.73
2023-04-17T00:33:37.784Z,18.95
2023-04-17T00:36:04.908Z,14.27
2023-04-17T00:38:31.686Z,14.10
2023-04-17T00:40:58.428Z,21.23
2023-04-17T00:43:25.440Z,15.30
2023-04-17T00:45:53.004Z,16.00
2023-04-17T00:48:21.050Z,20.30
2023-04-17T00:50:47.804Z,19.05
2023-04-17T00:53:14.746Z,14.85
2023-04-17T00:55:42.307Z,14.32
2023-04-17T00:58:10.282Z,15.50
2023-04-17T01:00:38.432Z,14.15
2023-04-17T01:03:06.024Z,16.08
2023-04-17T01:05:35.445Z,16.60
2023-04-17T01:08:02.235Z,17.67
2023-04-17T01:10:28.986Z,14.02
2023-04-17T01:13:03.454Z,16.38
2023-04-17T01:15:31.325Z,15.18
2023-04-17T01:17:58.399Z,18.67
2023-04-17T01:20:25.944Z,14.63
2023-04-17T01:22:52.714Z,13.60
2023-04-17T01:25:19.753Z,13.20
2023-04-17T01:27:47.052Z,12.57
2023-04-17T01:30:14.492Z,15.93
2023-04-17T01:32:48.223Z,14.18
2023-04-17T01:35:14.974Z,12.23
2023-04-17T01:37:41.734Z,17.42
2023-04-17T01:40:09.045Z,12.25
2023-04-17T01:42:35.976Z,14.32
2023-04-17T01:45:03.565Z,11.90
2023-04-17T01:47:31.170Z,16.98
2023-04-17T01:49:58.021Z,13.45
2023-04-17T01:52:25.565Z,17.73
2023-04-17T01:54:52.342Z,14.93
2023-04-17T01:57:19.058Z,13.45
2023-04-17T01:59:45.829Z,13.90
2023-04-17T02:02:12.730Z,12.68
2023-04-17T02:04:39.668Z,14.98
2023-04-17T02:07:06.587Z,17.30
2023-04-17T02:09:33.364Z,15.25
2023-04-17T02:12:00.079Z,15.48
2023-04-17T02:14:26.840Z,16.50
2023-04-17T02:16:53.828Z,13.60
2023-04-17T02:19:21.392Z,12.50
2023-04-17T02:21:48.248Z,13.60
2023-04-17T02:24:15.088Z,14.27
2023-04-17T02:26:41.875Z,13.25
2023-04-17T02:29:08.752Z,15.95
2023-04-17T02:31:36.421Z,13.38
2023-04-17T02:34:03.331Z,13.77
2023-04-17T02:36:30.699Z,12.38
2023-04-17T02:38:57.513Z,16.73
2023-04-17T02:41:24.267Z,14.77
2023-04-17T02:43:51.021Z,13.25
2023-04-17T02:46:18.623Z,15.68
2023-04-17T02:48:45.694Z,18.45
2023-04-17T02:51:12.461Z,13.75
2023-04-17T02:53:39.223Z,13.55
2023-04-17T02:56:06.191Z,17.00
2023-04-17T02:58:34.590Z,14.93
2023-04-17T03:01:02.814Z,16.10
2023-04-17T03:03:35.111Z,14.13
2023-04-17T03:06:05.202Z,13.88
2023-04-17T03:08:35.522Z,19.25
2023-04-17T03:11:03.440Z,14.88
2023-04-17T03:13:30.264Z,12.55
2023-04-17T03:15:57.096Z,15.00
2023-04-17T03:18:23.890Z,15.38
2023-04-17T03:20:50.681Z,15.90
2023-04-17T03:23:17.432Z,15.20
2023-04-17T03:25:44.249Z,15.63
2023-04-17T03:28:11.660Z,16.75
2023-04-17T03:30:39.008Z,17.23
2023-04-17T03:33:07.803Z,16.17
2023-04-17T03:35:34.715Z,17.52
2023-04-17T03:38:05.843Z,17.60
2023-04-17T03:40:33.732Z,19.55
2023-04-17T03:43:01.191Z,15.38
2023-04-17T03:45:28.040Z,20.23
2023-04-17T03:47:55.363Z,22.65
2023-04-17T03:50:22.706Z,18.77
2023-04-17T03:52:55.161Z,15.30
2023-04-17T03:55:25.379Z,16.00
2023-04-17T03:57:53.174Z,19.00
2023-04-17T04:00:21.302Z,19.10
2023-04-17T04:02:56.353Z,18.60
2023-04-17T04:05:27.733Z,15.65
2023-04-17T04:07:56.299Z,15.33
2023-04-17T04:10:29.834Z,16.15
2023-04-17T04:12:57.359Z,17.90
2023-04-17T04:15:25.333Z,15.70
2023-04-17T04:17:56.119Z,18.13
2023-04-17T04:20:22.935Z,17.67
2023-04-17T04:22:57.334Z,19.25
2023-04-17T04:25:26.492Z,16.65
2023-04-17T04:28:10.472Z,15.25
2023-04-17T04:30:38.755Z,18.40
2023-04-17T04:33:14.855Z,16.23
2023-04-17T04:35:42.480Z,18.02
2023-04-17T04:38:13.987Z,15.70
2023-04-17T04:40:44.036Z,17.45
2023-04-17T04:43:10.952Z,19.05
2023-04-17T04:45:41.709Z,15.30
2023-04-17T04:48:08.532Z,16.73
2023-04-17T04:50:35.489Z,16.40
2023-04-17T04:53:02.465Z,15.80
2023-04-17T04:58:18.778Z,16.92
2023-04-17T05:00:47.369Z,17.65
2023-04-17T05:03:23.370Z,17.60
2023-04-17T05:05:51.367Z,16.50
2023-04-17T05:08:20.341Z,17.10
2023-04-17T05:10:55.896Z,16.13
2023-04-17T05:13:23.650Z,16.08
2023-04-17T05:15:50.803Z,16.02
2023-04-17T05:18:21.068Z,15.80
2023-04-17T05:20:49.556Z,15.48
2023-04-17T05:23:18.197Z,15.05
2023-04-17T05:25:45.067Z,15.80
2023-04-17T05:28:12.951Z,16.25
2023-04-17T05:30:41.475Z,14.27
2023-04-17T05:33:18.086Z,16.35
2023-04-17T05:35:51.937Z,15.77
2023-04-17T05:38:20.186Z,16.40
2023-04-17T05:40:46.963Z,14.80
2023-04-17T05:43:13.734Z,17.33
2023-04-17T05:45:41.739Z,19.98
2023-04-17T05:48:09.579Z,15.68
2023-04-17T05:50:37.469Z,16.48
2023-04-17T05:53:06.459Z,16.70
2023-04-17T05:55:38.199Z,14.40
2023-04-17T05:58:22.973Z,17.45
2023-04-17T06:00:52.375Z,16.88
2023-04-17T06:03:20.886Z,16.95
2023-04-17T06:05:52.138Z,15.55
2023-04-17T06:08:19.146Z,16.05
2023-04-17T06:10:46.094Z,15.07
2023-04-17T06:13:13.423Z,16.17
2023-04-17T06:15:44.888Z,17.85
2023-04-17T06:18:11.730Z,16.15
2023-04-17T06:20:40.237Z,13.95
2023-04-17T06:23:07.067Z,15.77
2023-04-17T06:25:33.818Z,16.52
2023-04-17T06:28:00.772Z,14.60
2023-04-17T06:30:28.288Z,16.80
2023-04-17T06:32:56.415Z,17.98
2023-04-17T06:35:23.265Z,14.25
2023-04-17T06:37:55.945Z,14.95
2023-04-17T06:40:22.841Z,16.92
2023-04-17T06:42:51.366Z,16.90
2023-04-17T06:45:21.262Z,23.02
2023-04-17T06:47:48.210Z,30.38
2023-04-17T06:50:18.489Z,22.48
2023-04-17T06:52:45.745Z,43.90
2023-04-17T06:55:12.625Z,28.70
2023-04-17T06:57:40.146Z,26.10
2023-04-17T07:00:07.518Z,28.00
2023-04-17T07:02:34.678Z,31.05
2023-04-17T07:05:01.615Z,30.13
2023-04-17T07:07:30.804Z,24.60
2023-04-17T07:09:58.168Z,32.05
2023-04-17T07:12:25.022Z,28.23
2023-04-17T07:14:52.445Z,28.00
2023-04-17T07:17:19.759Z,33.60
2023-04-17T07:19:46.771Z,31.48
2023-04-17T07:22:13.541Z,24.20
2023-04-17T07:24:40.348Z,24.30
2023-04-17T07:27:07.342Z,24.95
2023-04-17T07:29:34.195Z,26.75
2023-04-17T07:32:03.188Z,25.38
2023-04-17T07:34:31.731Z,35.78
2023-04-17T07:36:58.691Z,26.73
2023-04-17T07:39:28.389Z,28.25
2023-04-17T07:41:56.256Z,32.28
2023-04-17T07:44:23.118Z,33.60
2023-04-17T07:46:50.234Z,34.63
2023-04-17T07:49:17.797Z,28.92
2023-04-17T07:51:44.764Z,25.77
2023-04-17T07:54:11.538Z,28.60
2023-04-17T07:56:38.541Z,29.25
2023-04-17T07:59:05.345Z,26.80
2023-04-17T08:01:32.123Z,29.90
2023-04-17T08:03:59.328Z,32.38
2023-04-17T08:06:26.638Z,38.47
2023-04-17T08:08:53.349Z,33.65
2023-04-17T08:11:20.413Z,25.70
2023-04-17T08:13:47.434Z,33.95
2023-04-17T08:16:14.282Z,28.08
2023-04-17T08:18:41.996Z,30.85
2023-04-17T08:21:09.154Z,22.92
2023-04-17T08:23:36.026Z,29.65
2023-04-17T08:26:02.859Z,31.58
2023-04-17T08:28:29.853Z,28.77
2023-04-17T08:30:57.238Z,26.25
2023-04-17T08:33:24.097Z,26.15
2023-04-17T08:35:51.869Z,32.65
2023-04-17T08:38:18.681Z,38.58
2023-04-17T08:40:51.798Z,36.58
2023-04-17T08:43:20.856Z,31.50
2023-04-17T08:45:56.623Z,36.28
2023-04-17T08:48:24.435Z,30.40
2023-04-17T08:50:52.869Z,31.08
2023-04-17T08:53:20.577Z,35.33
2023-04-17T08:55:48.314Z,41.28
2023-04-17T08:58:15.691Z,35.92
2023-04-17T09:00:44.051Z,34.00
2023-04-17T09:03:12.977Z,34.42
2023-04-17T09:05:43.187Z,31.85
2023-04-17T09:08:13.210Z,28.67
2023-04-17T09:10:50.922Z,28.33
2023-04-17T09:13:19.397Z,27.80
2023-04-17T09:15:47.896Z,31.17
2023-04-17T09:18:30.945Z,32.67
2023-04-17T09:21:01.720Z,26.40
2023-04-17T09:23:30.707Z,28.00
2023-04-17T09:26:08.573Z,29.30
2023-04-17T09:28:35.659Z,31.52
2023-04-17T09:31:05.693Z,27.08
2023-04-17T09:36:21.941Z,35.08
2023-04-17T09:38:49.424Z,27.60
2023-04-17T09:41:23.413Z,28.17
2023-04-17T09:43:50.269Z,27.88
2023-04-17T09:46:41.215Z,28.42
2023-04-17T09:49:09.937Z,24.75
2023-04-17T09:51:36.996Z,24.75
2023-04-17T09:54:09.741Z,24.30
2023-04-17T09:56:37.917Z,32.33
2023-04-17T09:59:05.884Z,27.70
2023-04-17T10:01:34.152Z,25.10
2023-04-17T10:04:02.258Z,23.42
2023-04-17T10:06:31.508Z,20.55
2023-04-17T10:08:58.677Z,25.30
2023-04-17T10:11:28.723Z,24.73
2023-04-17T10:14:12.789Z,25.45
2023-04-17T10:16:43.655Z,24.70
2023-04-17T10:19:46.958Z,20.13
2023-04-17T10:22:19.493Z,26.08
2023-04-17T10:24:47.877Z,27.70
2023-04-17T10:27:27.266Z,19.73
2023-04-17T10:29:54.274Z,21.58
2023-04-17T10:32:21.765Z,22.35
2023-04-17T10:34:48.758Z,21.55
2023-04-17T10:37:16.153Z,20.38
2023-04-17T10:40:22.849Z,20.65
2023-04-17T10:43:11.933Z,20.60
2023-04-17T10:48:31.060Z,19.63
2023-04-17T10:50:59.950Z,14.57
2023-04-17T10:53:45.481Z,14.95
2023-04-17T10:56:30.843Z,17.85
2023-04-17T10:59:00.964Z,17.23
2023-04-17T11:04:08.444Z,17.50
2023-04-17T11:06:40.048Z,14.90
2023-04-17T11:09:10.992Z,14.38
2023-04-17T11:11:44.582Z,17.95
2023-04-17T11:14:16.697Z,17.10
2023-04-17T11:16:44.827Z,19.73
2023-04-17T11:19:21.389Z,21.35
2023-04-17T11:21:50.503Z,21.10
2023-04-17T11:24:24.995Z,19.23
2023-04-17T11:26:51.882Z,18.85
2023-04-17T11:29:20.501Z,20.25
2023-04-17T11:31:48.225Z,23.95
2023-04-17T11:34:16.305Z,21.75
2023-04-17T11:36:57.350Z,27.50
2023-04-17T11:39:26.534Z,19.10
2023-04-17T11:41:53.621Z,25.45
2023-04-17T11:44:21.160Z,23.58
2023-04-17T11:46:56.133Z,18.83
2023-04-17T11:49:37.626Z,16.80
2023-04-17T11:52:05.522Z,21.27
2023-04-17T11:54:37.187Z,19.05
2023-04-17T11:57:06.234Z,16.88
2023-04-17T12:02:06.722Z,16.33
2023-04-17T12:04:35.155Z,16.80
2023-04-17T12:07:06.471Z,16.42
2023-04-17T12:09:34.748Z,23.27
2023-04-17T12:12:04.751Z,15.97
2023-04-17T12:14:32.194Z,20.02
2023-04-17T12:16:59.668Z,21.30
2023-04-17T12:19:29.951Z,13.73
2023-04-17T12:21:57.280Z,16.70
2023-04-17T12:24:25.095Z,19.30
2023-04-17T12:26:53.021Z,18.02
2023-04-17T12:29:26.591Z,12.02
2023-04-17T12:32:03.626Z,17.77
2023-04-17T12:34:31.627Z,11.53
2023-04-17T12:36:58.425Z,13.48
2023-04-17T12:39:25.331Z,11.35
2023-04-17T12:41:52.276Z,13.43
2023-04-17T12:44:19.009Z,14.43
2023-04-17T12:46:46.725Z,14.27
2023-04-17T12:49:13.741Z,18.80
2023-04-17T12:51:41.237Z,13.23
2023-04-17T12:54:08.357Z,12.20
2023-04-17T12:56:35.456Z,12.15
2023-04-17T12:59:03.249Z,14.40
2023-04-17T13:01:30.530Z,12.70
2023-04-17T13:03:57.580Z,14.35
2023-04-17T13:06:24.608Z,12.68
2023-04-17T13:08:51.402Z,13.13
2023-04-17T13:11:18.322Z,16.00
2023-04-17T13:13:45.212Z,10.18
2023-04-17T13:16:12.133Z,10.35
2023-04-17T13:18:39.059Z,13.23
2023-04-17T13:21:06.585Z,10.50
2023-04-17T13:23:33.482Z,11.82
2023-04-17T13:26:00.458Z,12.15
2023-04-17T13:28:27.292Z,10.68
2023-04-17T13:30:54.114Z,8.55
2023-04-17T13:33:21.089Z,10.50
2023-04-17T13:35:48.029Z,21.60
2023-04-17T13:38:14.919Z,14.18
2023-04-17T13:40:41.728Z,16.48
2023-04-17T13:43:09.135Z,18.63
2023-04-17T13:45:36.177Z,15.00
2023-04-17T13:48:03.180Z,13.57
2023-04-17T13:50:30.313Z,14.50
2023-04-17T13:52:57.290Z,15.70
2023-04-17T13:55:24.422Z,15.43
2023-04-17T13:57:53.158Z,13.43
2023-04-17T14:00:21.994Z,9.73
2023-04-17T14:05:16.146Z,12.07
2023-04-17T14:07:44.076Z,13.15
2023-04-17T14:10:11.116Z,9.00
2023-04-17T14:12:38.098Z,14.45
2023-04-17T14:15:07.372Z,14.98
2023-04-17T14:17:38.098Z,13.07
2023-04-17T14:20:06.096Z,11.05
2023-04-17T14:22:32.992Z,11.05
2023-04-17T14:25:00.026Z,9.45
2023-04-17T14:27:27.205Z,16.00
2023-04-17T14:29:54.105Z,11.73
2023-04-17T14:32:21.133Z,10.38
2023-04-17T14:34:48.077Z,8.85
2023-04-17T14:37:14.881Z,9.95
2023-04-17T14:39:41.848Z,10.45
2023-04-17T14:42:08.649Z,9.98
2023-04-17T14:44:35.560Z,11.65
2023-04-17T14:47:02.567Z,9.23
2023-04-17T14:49:30.286Z,12.07
2023-04-17T14:51:57.272Z,14.38
2023-04-17T14:54:24.307Z,11.63
2023-04-17T14:56:51.090Z,9.43
2023-04-17T14:59:18.108Z,11.50
2023-04-17T15:01:45.021Z,12.45
2023-04-17T15:04:12.113Z,7.95
2023-04-17T15:06:39.463Z,10.88
2023-04-17T15:09:06.795Z,15.45
2023-04-17T15:11:33.731Z,12.82
2023-04-17T15:14:00.782Z,12.50
2023-04-17T15:16:27.875Z,12.05
2023-04-17T15:18:54.797Z,15.88
2023-04-17T15:21:21.866Z,13.45
2023-04-17T15:23:48.940Z,12.65
2023-04-17T15:26:15.866Z,8.50
2023-04-17T15:28:42.835Z,10.63
2023-04-17T15:31:09.788Z,11.23
2023-04-17T15:33:37.176Z,15.60
2023-04-17T15:36:04.391Z,10.88
2023-04-17T15:38:31.319Z,11.30
2023-04-17T15:40:58.962Z,22.48
2023-04-17T15:43:26.368Z,8.38
2023-04-17T15:45:53.387Z,10.80
2023-04-17T15:48:20.559Z,11.07
2023-04-17T15:50:47.652Z,12.20
2023-04-17T15:53:14.754Z,9.95
2023-04-17T15:55:41.713Z,10.35
2023-04-17T15:58:09.059Z,15.90
2023-04-17T16:00:35.944Z,13.40
2023-04-17T16:03:03.569Z,11.18
2023-04-17T16:05:30.618Z,14.30
2023-04-17T16:07:57.636Z,11.15
2023-04-17T16:10:24.633Z,11.80
2023-04-17T16:12:51.402Z,15.20
2023-04-17T16:15:18.761Z,13.95
2023-04-17T16:17:46.096Z,17.10
2023-04-17T16:20:13.361Z,13.35
2023-04-17T16:22:40.496Z,10.43
2023-04-17T16:25:07.768Z,11.68
2023-04-17T16:27:34.612Z,11.27
2023-04-17T16:30:03.068Z,12.63
2023-04-17T16:32:31.701Z,12.38
2023-04-17T16:34:59.069Z,9.98
2023-04-17T16:37:26.156Z,13.60
2023-04-17T16:39:53.071Z,8.00
2023-04-17T16:42:19.954Z,11.05
2023-04-17T16:44:46.835Z,8.55
2023-04-17T16:47:14.618Z,12.45
2023-04-17T16:49:42.364Z,11.18
2023-04-17T16:52:09.439Z,9.93
2023-04-17T16:54:36.292Z,10.07
2023-04-17T16:57:03.085Z,10.85
2023-04-17T16:59:29.853Z,14.10
2023-04-17T17:01:56.739Z,12.48
2023-04-17T17:04:23.628Z,15.18
2023-04-17T17:06:50.715Z,10.40
2023-04-17T17:09:17.651Z,14.93
2023-04-17T17:11:44.453Z,9.85
2023-04-17T17:14:11.395Z,13.15
2023-04-17T17:16:38.464Z,9.88
2023-04-17T17:19:05.911Z,10.27
2023-04-17T17:21:33.021Z,10.27
2023-04-17T17:24:00.608Z,10.38
2023-04-17T17:26:27.442Z,11.20
2023-04-17T17:28:55.406Z,9.23
2023-04-17T17:31:22.509Z,9.95
2023-04-17T17:33:54.111Z,11.57
2023-04-17T17:36:24.470Z,10.02
2023-04-17T17:38:55.928Z,13.68
2023-04-17T17:41:24.146Z,10.43
2023-04-17T17:43:51.289Z,10.63
2023-04-17T17:46:19.563Z,9.10
2023-04-17T17:48:46.910Z,10.05
2023-04-17T17:51:13.956Z,11.50
2023-04-17T17:53:41.578Z,9.23
2023-04-17T17:56:08.864Z,10.98
2023-04-17T17:58:36.037Z,10.73
2023-04-17T18:01:02.978Z,10.57
2023-04-17T18:03:30.568Z,9.52
2023-04-17T18:05:58.157Z,10.13
2023-04-17T18:08:25.456Z,12.45
2023-04-17T18:10:52.319Z,12.73
2023-04-17T18:13:19.288Z,7.85
2023-04-17T18:15:46.724Z,10.95
2023-04-17T18:18:13.688Z,11.65
2023-04-17T18:20:40.563Z,9.38
2023-04-17T18:23:07.474Z,13.60
2023-04-17T18:25:36.009Z,13.50
2023-04-17T18:28:03.963Z,9.93
2023-04-17T18:30:31.049Z,9.63
2023-04-17T18:32:58.328Z,10.20
2023-04-17T18:35:25.288Z,11.43
2023-04-17T18:37:53.256Z,7.85
2023-04-17T18:42:48.469Z,11.70
2023-04-17T18:45:16.265Z,9.85
2023-04-17T18:47:43.375Z,9.60
2023-04-17T18:50:11.414Z,10.40
2023-04-17T18:52:42.040Z,18.42
2023-04-17T18:55:10.597Z,14.23
2023-04-17T18:57:37.664Z,13.35
2023-04-17T19:00:05.531Z,16.27
2023-04-17T19:02:32.593Z,16.90
2023-04-17T19:04:59.633Z,19.13
2023-04-17T19:07:26.611Z,12.70
2023-04-17T19:09:53.406Z,10.98
2023-04-17T19:12:20.417Z,18.92
2023-04-17T19:14:47.195Z,9.10
2023-04-17T19:17:14.154Z,11.18
2023-04-17T19:19:41.031Z,19.17
2023-04-17T19:22:07.771Z,15.75
2023-04-17T19:24:34.525Z,10.93
2023-04-17T19:27:01.945Z,10.38
2023-04-17T19:29:28.737Z,11.32
2023-04-17T19:31:55.670Z,13.68
2023-04-17T19:34:22.494Z,15.38
2023-04-17T19:36:49.209Z,10.70
2023-04-17T19:39:16.117Z,15.55
2023-04-17T19:41:46.013Z,9.68
2023-04-17T19:44:14.295Z,13.98
2023-04-17T19:46:41.074Z,10.25
2023-04-17T19:49:07.885Z,16.23
2023-04-17T19:51:34.701Z,13.35
2023-04-17T19:54:01.527Z,10.05
2023-04-17T19:56:28.307Z,11.90
2023-04-17T19:58:57.723Z,14.20
2023-04-17T20:01:24.486Z,21.52
2023-04-17T20:03:51.605Z,10.65
2023-04-17T20:06:19.555Z,8.75
2023-04-17T20:08:46.422Z,14.30
2023-04-17T20:11:15.606Z,13.20
2023-04-17T20:13:43.901Z,15.95
2023-04-17T20:16:10.672Z,12.88
2023-04-17T20:18:37.933Z,12.65
2023-04-17T20:21:06.317Z,13.55
2023-04-17T20:23:33.179Z,11.95
2023-04-17T20:26:00.037Z,12.25
2023-04-17T20:28:28.862Z,11.95
2023-04-17T20:30:55.988Z,11.20
2023-04-17T20:33:22.803Z,10.05
2023-04-17T20:35:49.584Z,11.27
2023-04-17T20:38:16.329Z,10.95
2023-04-17T20:40:43.263Z,13.82
2023-04-17T20:43:10.128Z,14.23
2023-04-17T20:45:36.889Z,10.05
2023-04-17T20:48:03.792Z,12.82
2023-04-17T20:50:30.714Z,16.30
2023-04-17T20:52:57.612Z,12.93
2023-04-17T20:55:24.403Z,10.68
2023-04-17T20:57:51.412Z,12.55
2023-04-17T21:00:18.548Z,14.10
2023-04-17T21:02:45.487Z,8.23
2023-04-17T21:05:12.429Z,10.85
2023-04-17T21:07:39.168Z,13.52
2023-04-17T21:10:06.412Z,9.38
2023-04-17T21:12:35.062Z,7.72
2023-04-17T21:15:02.212Z,10.02
2023-04-17T21:17:28.950Z,8.98
2023-04-17T21:19:56.279Z,9.15
2023-04-17T21:22:23.206Z,11.70
2023-04-17T21:24:50.058Z,8.32
2023-04-17T21:27:16.787Z,10.52
2023-04-17T21:29:43.643Z,7.70
2023-04-17T21:32:10.387Z,8.68
2023-04-17T21:34:37.117Z,8.80
2023-04-17T21:37:04.951Z,10.80
2023-04-17T21:39:33.260Z,8.80
2023-04-17T21:42:00.661Z,8.80
2023-04-17T21:44:28.184Z,9.52
2023-04-17T21:46:55.112Z,9.27
2023-04-17T21:49:22.667Z,11.38
2023-04-17T21:51:49.486Z,9.35
2023-04-17T21:54:16.720Z,8.68
2023-04-17T21:56:43.478Z,11.07
2023-04-17T21:59:10.227Z,11.05
2023-04-17T22:01:37.127Z,12.15
2023-04-17T22:04:04.078Z,9.25
2023-04-17T22:06:30.894Z,10.75
2023-04-17T22:08:59.149Z,9.80
2023-04-17T22:11:26.035Z,11.32
2023-04-17T22:13:52.757Z,10.45
2023-04-17T22:16:19.550Z,9.05
2023-04-17T22:18:46.451Z,9.10
2023-04-17T22:22:09.764Z,9.95
2023-04-17T22:25:51.699Z,10.57
2023-04-17T22:29:33.686Z,11.82
2023-04-17T22:33:15.880Z,12.40
2023-04-17T22:37:16.971Z,9.00
2023-04-17T22:40:58.653Z,10.30
2023-04-17T22:44:40.624Z,9.32
2023-04-17T22:47:26.375Z,9.93
2023-04-17T22:49:53.545Z,11.38
2023-04-17T22:52:20.728Z,7.43
2023-04-17T22:54:47.453Z,9.60
2023-04-17T22:57:14.269Z,13.02
2023-04-17T22:59:41.802Z,9.48
2023-04-17T23:02:08.745Z,9.02
2023-04-17T23:04:35.715Z,13.75
2023-04-17T23:07:02.580Z,10.00
2023-04-17T23:09:29.332Z,8.77
2023-04-17T23:11:56.052Z,10.13
2023-04-17T23:14:22.989Z,8.98
2023-04-17T23:16:49.738Z,8.30
2023-04-17T23:19:16.513Z,15.07
2023-04-17T23:21:43.304Z,8.93
2023-04-17T23:24:10.312Z,10.32
2023-04-17T23:26:37.413Z,10.02
2023-04-17T23:29:04.453Z,10.32
2023-04-17T23:31:31.267Z,10.52
2023-04-17T23:33:58.079Z,13.45
2023-04-17T23:36:25.029Z,10.68
2023-04-17T23:38:51.763Z,11.00
2023-04-17T23:41:18.468Z,8.63
2023-04-17T23:43:45.308Z,8.57
2023-04-17T23:46:12.415Z,12.60
2023-04-17T23:48:39.180Z,8.35
2023-04-17T23:51:06.136Z,12.63
2023-04-17T23:53:32.854Z,9.35
2023-04-17T23:55:59.584Z,9.52
2023-04-17T23:58:26.361Z,7.85
